createdAt,value
2022-10-26T00:20:00.568Z,97990.31
2022-10-26T00:50:08.425Z,98009.72
2022-10-26T01:20:32.141Z,98011.13
2022-10-26T02:51:54.880Z,97956.28
2022-10-26T03:21:58.986Z,97952.34
2022-10-26T03:52:03.217Z,97938.47
2022-10-26T04:22:07.319Z,97935.31
2022-10-26T04:52:11.452Z,97926.63
2022-10-26T05:22:15.546Z,97923.81
2022-10-26T05:52:19.645Z,97929.19
2022-10-26T06:22:33.214Z,97950.88
2022-10-26T06:52:42.625Z,97985.56
2022-10-26T07:22:46.751Z,98024.25
2022-10-26T07:52:51.425Z,98043.72
2022-10-26T08:22:57.207Z,98053.25
2022-10-26T08:53:05.096Z,98073.66
2022-10-26T09:23:20.739Z,98103.13
2022-10-26T09:53:25.444Z,98102.56
2022-10-26T10:23:32.163Z,98165.81
2022-10-26T10:53:39.494Z,98205.13
2022-10-26T11:23:48.937Z,98218.28
2022-10-26T11:53:53.364Z,98226.53
2022-10-26T12:23:59.216Z,98248.75
2022-10-26T12:54:17.522Z,98271.50
2022-10-26T13:24:23.921Z,98287.28
2022-10-26T13:54:31.041Z,98298.63
2022-10-26T14:24:47.205Z,98324.38
2022-10-26T14:55:00.284Z,98346.34
2022-10-26T15:25:06.100Z,98379.56
2022-10-26T15:55:11.043Z,98407.78
2022-10-26T16:25:16.114Z,98428.53
2022-10-26T16:55:24.431Z,98466.53
2022-10-26T17:25:28.562Z,98512.78
2022-10-26T17:55:32.758Z,98568.16
2022-10-26T18:25:37.620Z,98593.84
2022-10-26T18:55:42.187Z,98616.28
2022-10-26T19:25:46.443Z,98661.59
2022-10-26T19:55:50.856Z,98684.06
2022-10-26T20:25:58.300Z,98697.13
2022-10-26T20:56:04.882Z,98711.66
2022-10-26T21:26:09.623Z,98738.00
2022-10-26T21:56:15.604Z,98746.75
2022-10-26T22:26:21.010Z,98760.34
2022-10-26T23:26:31.863Z,98766.38
2022-10-26T23:56:35.963Z,98783.28
